sensor_id;sensor_type;location;lat;lon;timestamp;temperature;humidity
34646;DHT22;20857;47.808;12.482;2023-07-28T00:00:06;16.60;99.90
34646;DHT22;20857;47.808;12.482;2023-07-28T00:02:32;16.60;99.90
34646;DHT22;20857;47.808;12.482;2023-07-28T00:04:57;16.60;99.90
34646;DHT22;20857;47.808;12.482;2023-07-28T00:07:23;16.60;99.90
34646;DHT22;20857;47.808;12.482;2023-07-28T00:09:49;16.50;99.90
34646;DHT22;20857;47.808;12.482;2023-07-28T00:12:14;16.40;99.90
34646;DHT22;20857;47.808;12.482;2023-07-28T00:14:40;16.30;99.90
34646;DHT22;20857;47.808;12.482;2023-07-28T00:17:05;16.30;99.90
34646;DHT22;20857;47.808;12.482;2023-07-28T00:19:31;16.20;99.90
34646;DHT22;20857;47.808;12.482;2023-07-28T00:21:57;16.20;99.90
34646;DHT22;20857;47.808;12.482;2023-07-28T00:24:22;16.10;99.90
34646;DHT22;20857;47.808;12.482;2023-07-28T00:26:48;16.10;99.90
34646;DHT22;20857;47.808;12.482;2023-07-28T00:29:13;16.10;99.90
34646;DHT22;20857;47.808;12.482;2023-07-28T00:31:39;16.10;99.90
34646;DHT22;20857;47.808;12.482;2023-07-28T00:34:04;16.00;99.90
34646;DHT22;20857;47.808;12.482;2023-07-28T00:36:33;15.90;99.90
34646;DHT22;20857;47.808;12.482;2023-07-28T00:38:58;15.90;99.90
34646;DHT22;20857;47.808;12.482;2023-07-28T00:41:24;15.90;99.90
34646;DHT22;20857;47.808;12.482;2023-07-28T00:43:50;15.80;99.90
34646;DHT22;20857;47.808;12.482;2023-07-28T00:46:16;15.80;99.90
34646;DHT22;20857;47.808;12.482;2023-07-28T00:48:42;15.70;99.90
34646;DHT22;20857;47.808;12.482;2023-07-28T00:51:08;15.70;99.90
34646;DHT22;20857;47.808;12.482;2023-07-28T00:53:34;15.70;99.90
34646;DHT22;20857;47.808;12.482;2023-07-28T00:56:01;15.70;99.90
34646;DHT22;20857;47.808;12.482;2023-07-28T00:58:27;15.70;99.90
34646;DHT22;20857;47.808;12.482;2023-07-28T01:00:53;15.70;99.90
34646;DHT22;20857;47.808;12.482;2023-07-28T01:03:20;15.60;99.90
34646;DHT22;20857;47.808;12.482;2023-07-28T01:06:18;15.60;99.90
34646;DHT22;20857;47.808;12.482;2023-07-28T01:09:12;15.60;99.90
34646;DHT22;20857;47.808;12.482;2023-07-28T01:11:58;15.60;99.90
34646;DHT22;20857;47.808;12.482;2023-07-28T01:14:25;15.50;99.90
34646;DHT22;20857;47.808;12.482;2023-07-28T01:16:50;15.50;99.90
34646;DHT22;20857;47.808;12.482;2023-07-28T01:19:17;15.50;99.90
34646;DHT22;20857;47.808;12.482;2023-07-28T01:21:48;15.50;99.90
34646;DHT22;20857;47.808;12.482;2023-07-28T01:24:42;15.40;99.90
34646;DHT22;20857;47.808;12.482;2023-07-28T01:27:14;15.50;99.90
34646;DHT22;20857;47.808;12.482;2023-07-28T01:29:40;15.50;99.90
34646;DHT22;20857;47.808;12.482;2023-07-28T01:32:05;15.50;99.90
34646;DHT22;20857;47.808;12.482;2023-07-28T01:34:31;15.50;99.90
34646;DHT22;20857;47.808;12.482;2023-07-28T01:36:57;15.50;99.90
34646;DHT22;20857;47.808;12.482;2023-07-28T01:39:22;15.40;99.90
34646;DHT22;20857;47.808;12.482;2023-07-28T01:41:48;15.40;99.90
34646;DHT22;20857;47.808;12.482;2023-07-28T01:44:13;15.30;99.90
34646;DHT22;20857;47.808;12.482;2023-07-28T01:46:39;15.30;99.90
34646;DHT22;20857;47.808;12.482;2023-07-28T01:49:05;15.30;99.90
34646;DHT22;20857;47.808;12.482;2023-07-28T01:51:30;15.30;99.90
34646;DHT22;20857;47.808;12.482;2023-07-28T01:53:56;15.30;99.90
34646;DHT22;20857;47.808;12.482;2023-07-28T01:56:21;15.30;99.90
34646;DHT22;20857;47.808;12.482;2023-07-28T01:58:47;15.30;99.90
34646;DHT22;20857;47.808;12.482;2023-07-28T02:01:13;15.20;99.90
34646;DHT22;20857;47.808;12.482;2023-07-28T02:03:38;15.20;99.90
34646;DHT22;20857;47.808;12.482;2023-07-28T02:06:04;15.20;99.90
34646;DHT22;20857;47.808;12.482;2023-07-28T02:08:29;15.10;99.90
34646;DHT22;20857;47.808;12.482;2023-07-28T02:10:55;15.10;99.90
34646;DHT22;20857;47.808;12.482;2023-07-28T02:13:20;15.10;99.90
34646;DHT22;20857;47.808;12.482;2023-07-28T02:15:46;15.00;99.90
34646;DHT22;20857;47.808;12.482;2023-07-28T02:18:11;15.00;99.90
34646;DHT22;20857;47.808;12.482;2023-07-28T02:20:37;15.00;99.90
34646;DHT22;20857;47.808;12.482;2023-07-28T02:23:04;15.00;99.90
34646;DHT22;20857;47.808;12.482;2023-07-28T02:25:30;15.00;99.90
34646;DHT22;20857;47.808;12.482;2023-07-28T02:27:55;15.00;99.90
34646;DHT22;20857;47.808;12.482;2023-07-28T02:30:21;15.00;99.90
34646;DHT22;20857;47.808;12.482;2023-07-28T02:32:46;15.00;99.90
34646;DHT22;20857;47.808;12.482;2023-07-28T02:35:12;15.00;99.90
34646;DHT22;20857;47.808;12.482;2023-07-28T02:37:38;15.00;99.90
34646;DHT22;20857;47.808;12.482;2023-07-28T02:40:03;14.90;99.90
34646;DHT22;20857;47.808;12.482;2023-07-28T02:42:29;14.90;99.90
34646;DHT22;20857;47.808;12.482;2023-07-28T02:44:55;14.90;99.90
34646;DHT22;20857;47.808;12.482;2023-07-28T02:50:46;14.80;99.90
34646;DHT22;20857;47.808;12.482;2023-07-28T02:53:15;14.80;99.90
34646;DHT22;20857;47.808;12.482;2023-07-28T02:55:45;14.80;99.90
34646;DHT22;20857;47.808;12.482;2023-07-28T02:58:11;14.80;99.90
34646;DHT22;20857;47.808;12.482;2023-07-28T03:00:37;14.80;99.90
34646;DHT22;20857;47.808;12.482;2023-07-28T03:03:04;14.70;99.90
34646;DHT22;20857;47.808;12.482;2023-07-28T03:05:31;14.80;99.90
34646;DHT22;20857;47.808;12.482;2023-07-28T03:07:57;14.70;99.90
34646;DHT22;20857;47.808;12.482;2023-07-28T03:10:23;14.80;99.90
34646;DHT22;20857;47.808;12.482;2023-07-28T03:12:48;14.80;99.90
34646;DHT22;20857;47.808;12.482;2023-07-28T03:15:14;14.70;99.90
34646;DHT22;20857;47.808;12.482;2023-07-28T03:17:39;14.70;99.90
34646;DHT22;20857;47.808;12.482;2023-07-28T03:20:05;14.70;99.90
34646;DHT22;20857;47.808;12.482;2023-07-28T03:22:31;14.70;99.90
34646;DHT22;20857;47.808;12.482;2023-07-28T03:24:57;14.60;99.90
34646;DHT22;20857;47.808;12.482;2023-07-28T03:27:23;14.60;99.90
34646;DHT22;20857;47.808;12.482;2023-07-28T03:29:48;14.60;99.90
34646;DHT22;20857;47.808;12.482;2023-07-28T03:32:14;14.60;99.90
34646;DHT22;20857;47.808;12.482;2023-07-28T03:34:39;14.60;99.90
34646;DHT22;20857;47.808;12.482;2023-07-28T03:37:05;14.60;99.90
34646;DHT22;20857;47.808;12.482;2023-07-28T03:39:31;14.60;99.90
34646;DHT22;20857;47.808;12.482;2023-07-28T03:41:57;14.60;99.90
34646;DHT22;20857;47.808;12.482;2023-07-28T03:44:23;14.60;99.90
34646;DHT22;20857;47.808;12.482;2023-07-28T03:46:48;14.60;99.90
34646;DHT22;20857;47.808;12.482;2023-07-28T03:49:14;14.70;99.90
34646;DHT22;20857;47.808;12.482;2023-07-28T03:51:40;14.80;99.90
34646;DHT22;20857;47.808;12.482;2023-07-28T03:54:05;14.80;99.90
34646;DHT22;20857;47.808;12.482;2023-07-28T03:56:31;14.80;99.90
34646;DHT22;20857;47.808;12.482;2023-07-28T03:58:56;14.90;99.90
34646;DHT22;20857;47.808;12.482;2023-07-28T04:01:22;14.90;99.90
34646;DHT22;20857;47.808;12.482;2023-07-28T04:03:48;14.90;99.90
34646;DHT22;20857;47.808;12.482;2023-07-28T04:06:13;15.00;99.90
34646;DHT22;20857;47.808;12.482;2023-07-28T04:08:39;15.00;99.90
34646;DHT22;20857;47.808;12.482;2023-07-28T04:11:05;15.10;99.90
34646;DHT22;20857;47.808;12.482;2023-07-28T04:13:32;15.10;99.90
34646;DHT22;20857;47.808;12.482;2023-07-28T04:15:58;15.10;99.90
34646;DHT22;20857;47.808;12.482;2023-07-28T04:18:24;15.10;99.90
34646;DHT22;20857;47.808;12.482;2023-07-28T04:20:49;15.20;99.90
34646;DHT22;20857;47.808;12.482;2023-07-28T04:23:15;15.20;99.90
34646;DHT22;20857;47.808;12.482;2023-07-28T04:25:40;15.30;99.90
34646;DHT22;20857;47.808;12.482;2023-07-28T04:28:06;15.30;99.90
34646;DHT22;20857;47.808;12.482;2023-07-28T04:30:31;15.40;99.90
34646;DHT22;20857;47.808;12.482;2023-07-28T04:32:57;15.50;99.90
34646;DHT22;20857;47.808;12.482;2023-07-28T04:35:23;15.70;99.90
34646;DHT22;20857;47.808;12.482;2023-07-28T04:37:48;15.90;99.90
34646;DHT22;20857;47.808;12.482;2023-07-28T04:40:14;15.90;99.90
34646;DHT22;20857;47.808;12.482;2023-07-28T04:42:40;16.00;99.90
34646;DHT22;20857;47.808;12.482;2023-07-28T04:45:06;16.00;99.90
34646;DHT22;20857;47.808;12.482;2023-07-28T04:47:31;15.90;99.90
34646;DHT22;20857;47.808;12.482;2023-07-28T04:49:57;16.00;99.90
34646;DHT22;20857;47.808;12.482;2023-07-28T04:52:23;16.00;99.90
34646;DHT22;20857;47.808;12.482;2023-07-28T04:54:49;16.00;99.90
34646;DHT22;20857;47.808;12.482;2023-07-28T04:57:14;16.00;99.90
34646;DHT22;20857;47.808;12.482;2023-07-28T04:59:40;16.10;99.90
34646;DHT22;20857;47.808;12.482;2023-07-28T05:02:06;16.10;99.90
34646;DHT22;20857;47.808;12.482;2023-07-28T05:04:32;16.20;99.90
34646;DHT22;20857;47.808;12.482;2023-07-28T05:06:57;16.20;99.90
34646;DHT22;20857;47.808;12.482;2023-07-28T05:09:23;16.30;99.90
34646;DHT22;20857;47.808;12.482;2023-07-28T05:11:48;16.30;99.90
34646;DHT22;20857;47.808;12.482;2023-07-28T05:14:14;16.40;99.90
34646;DHT22;20857;47.808;12.482;2023-07-28T05:16:40;16.50;99.90
34646;DHT22;20857;47.808;12.482;2023-07-28T05:19:06;16.50;99.90
34646;DHT22;20857;47.808;12.482;2023-07-28T05:21:32;16.50;99.90
34646;DHT22;20857;47.808;12.482;2023-07-28T05:23:58;16.70;99.90
34646;DHT22;20857;47.808;12.482;2023-07-28T05:26:24;16.70;99.90
34646;DHT22;20857;47.808;12.482;2023-07-28T05:28:50;16.70;99.90
34646;DHT22;20857;47.808;12.482;2023-07-28T05:31:16;16.60;99.90
34646;DHT22;20857;47.808;12.482;2023-07-28T05:33:41;16.70;99.90
34646;DHT22;20857;47.808;12.482;2023-07-28T05:36:07;16.80;99.90
34646;DHT22;20857;47.808;12.482;2023-07-28T05:38:33;17.00;99.90
34646;DHT22;20857;47.808;12.482;2023-07-28T05:40:59;17.00;99.90
34646;DHT22;20857;47.808;12.482;2023-07-28T05:43:29;17.00;99.90
34646;DHT22;20857;47.808;12.482;2023-07-28T05:45:55;17.10;99.90
34646;DHT22;20857;47.808;12.482;2023-07-28T05:48:21;17.10;99.90
34646;DHT22;20857;47.808;12.482;2023-07-28T05:50:47;17.30;99.90
34646;DHT22;20857;47.808;12.482;2023-07-28T05:53:13;17.30;99.90
34646;DHT22;20857;47.808;12.482;2023-07-28T05:55:39;17.30;99.90
34646;DHT22;20857;47.808;12.482;2023-07-28T05:58:05;17.30;99.90
34646;DHT22;20857;47.808;12.482;2023-07-28T06:00:31;17.20;99.90
34646;DHT22;20857;47.808;12.482;2023-07-28T06:02:57;17.20;99.90
34646;DHT22;20857;47.808;12.482;2023-07-28T06:05:22;17.30;99.90
34646;DHT22;20857;47.808;12.482;2023-07-28T06:07:48;17.50;99.90
34646;DHT22;20857;47.808;12.482;2023-07-28T06:10:13;17.60;99.90
34646;DHT22;20857;47.808;12.482;2023-07-28T06:12:39;17.50;99.90
34646;DHT22;20857;47.808;12.482;2023-07-28T06:15:06;17.70;99.90
34646;DHT22;20857;47.808;12.482;2023-07-28T06:17:31;17.80;99.90
34646;DHT22;20857;47.808;12.482;2023-07-28T06:19:57;18.00;99.90
34646;DHT22;20857;47.808;12.482;2023-07-28T06:22:23;18.10;99.90
34646;DHT22;20857;47.808;12.482;2023-07-28T06:24:48;18.30;99.90
34646;DHT22;20857;47.808;12.482;2023-07-28T06:27:14;18.50;99.90
34646;DHT22;20857;47.808;12.482;2023-07-28T06:29:40;18.70;99.90
34646;DHT22;20857;47.808;12.482;2023-07-28T06:32:05;18.70;99.90
34646;DHT22;20857;47.808;12.482;2023-07-28T06:34:31;18.80;99.90
34646;DHT22;20857;47.808;12.482;2023-07-28T06:36:57;18.90;99.90
34646;DHT22;20857;47.808;12.482;2023-07-28T06:39:23;18.80;99.90
34646;DHT22;20857;47.808;12.482;2023-07-28T06:41:50;18.80;99.90
34646;DHT22;20857;47.808;12.482;2023-07-28T06:44:16;18.60;99.90
34646;DHT22;20857;47.808;12.482;2023-07-28T06:46:41;18.40;99.90
34646;DHT22;20857;47.808;12.482;2023-07-28T06:49:07;18.50;99.90
34646;DHT22;20857;47.808;12.482;2023-07-28T06:51:32;18.50;99.90
34646;DHT22;20857;47.808;12.482;2023-07-28T06:53:59;18.70;99.90
34646;DHT22;20857;47.808;12.482;2023-07-28T06:56:24;18.80;99.90
34646;DHT22;20857;47.808;12.482;2023-07-28T06:58:50;19.00;99.90
34646;DHT22;20857;47.808;12.482;2023-07-28T07:01:16;19.20;99.90
34646;DHT22;20857;47.808;12.482;2023-07-28T07:03:43;19.20;99.90
34646;DHT22;20857;47.808;12.482;2023-07-28T07:06:09;19.30;99.90
34646;DHT22;20857;47.808;12.482;2023-07-28T07:08:34;19.50;99.90
34646;DHT22;20857;47.808;12.482;2023-07-28T07:11:00;19.50;99.90
34646;DHT22;20857;47.808;12.482;2023-07-28T07:13:26;19.50;99.90
34646;DHT22;20857;47.808;12.482;2023-07-28T07:15:51;19.50;99.90
34646;DHT22;20857;47.808;12.482;2023-07-28T07:18:17;19.50;99.90
34646;DHT22;20857;47.808;12.482;2023-07-28T07:20:43;19.40;99.90
34646;DHT22;20857;47.808;12.482;2023-07-28T07:23:08;19.30;99.90
34646;DHT22;20857;47.808;12.482;2023-07-28T07:25:34;19.30;99.90
34646;DHT22;20857;47.808;12.482;2023-07-28T07:27:59;19.50;99.90
34646;DHT22;20857;47.808;12.482;2023-07-28T07:30:25;19.70;99.90
34646;DHT22;20857;47.808;12.482;2023-07-28T07:32:50;19.80;99.90
34646;DHT22;20857;47.808;12.482;2023-07-28T07:35:16;20.00;99.90
34646;DHT22;20857;47.808;12.482;2023-07-28T07:37:42;19.90;99.90
34646;DHT22;20857;47.808;12.482;2023-07-28T07:40:09;19.80;99.90
34646;DHT22;20857;47.808;12.482;2023-07-28T07:42:43;19.80;99.90
34646;DHT22;20857;47.808;12.482;2023-07-28T07:45:10;19.70;99.90
34646;DHT22;20857;47.808;12.482;2023-07-28T07:50:58;19.60;99.90
34646;DHT22;20857;47.808;12.482;2023-07-28T07:53:24;19.50;99.90
34646;DHT22;20857;47.808;12.482;2023-07-28T07:55:49;19.60;99.90
34646;DHT22;20857;47.808;12.482;2023-07-28T07:58:15;19.80;99.90
34646;DHT22;20857;47.808;12.482;2023-07-28T08:00:41;20.00;99.90
34646;DHT22;20857;47.808;12.482;2023-07-28T08:03:06;20.10;99.90
34646;DHT22;20857;47.808;12.482;2023-07-28T08:05:32;20.30;99.90
34646;DHT22;20857;47.808;12.482;2023-07-28T08:07:57;20.60;99.90
34646;DHT22;20857;47.808;12.482;2023-07-28T08:10:23;20.80;99.90
34646;DHT22;20857;47.808;12.482;2023-07-28T08:12:49;20.90;99.90
34646;DHT22;20857;47.808;12.482;2023-07-28T08:15:15;21.00;99.90
34646;DHT22;20857;47.808;12.482;2023-07-28T08:17:40;21.00;99.90
34646;DHT22;20857;47.808;12.482;2023-07-28T08:20:07;21.00;99.90
34646;DHT22;20857;47.808;12.482;2023-07-28T08:22:33;21.00;99.90
34646;DHT22;20857;47.808;12.482;2023-07-28T08:24:59;21.30;99.90
34646;DHT22;20857;47.808;12.482;2023-07-28T08:27:24;21.90;99.90
34646;DHT22;20857;47.808;12.482;2023-07-28T08:29:50;22.40;99.90
34646;DHT22;20857;47.808;12.482;2023-07-28T08:32:15;22.40;99.90
34646;DHT22;20857;47.808;12.482;2023-07-28T08:34:41;22.50;99.90
34646;DHT22;20857;47.808;12.482;2023-07-28T08:37:07;22.50;99.90
34646;DHT22;20857;47.808;12.482;2023-07-28T08:39:33;22.40;99.90
34646;DHT22;20857;47.808;12.482;2023-07-28T08:42:02;22.30;99.90
34646;DHT22;20857;47.808;12.482;2023-07-28T08:44:32;22.20;99.90
34646;DHT22;20857;47.808;12.482;2023-07-28T08:47:02;22.10;99.90
34646;DHT22;20857;47.808;12.482;2023-07-28T08:49:32;22.30;99.90
34646;DHT22;20857;47.808;12.482;2023-07-28T08:52:02;22.30;99.90
34646;DHT22;20857;47.808;12.482;2023-07-28T08:54:29;22.50;99.90
34646;DHT22;20857;47.808;12.482;2023-07-28T08:56:55;22.60;99.90
34646;DHT22;20857;47.808;12.482;2023-07-28T08:59:23;22.70;99.90
34646;DHT22;20857;47.808;12.482;2023-07-28T09:01:52;22.90;99.90
34646;DHT22;20857;47.808;12.482;2023-07-28T09:04:17;23.10;99.90
34646;DHT22;20857;47.808;12.482;2023-07-28T09:06:51;23.20;99.90
34646;DHT22;20857;47.808;12.482;2023-07-28T09:09:21;23.30;99.90
34646;DHT22;20857;47.808;12.482;2023-07-28T09:11:50;23.30;99.90
34646;DHT22;20857;47.808;12.482;2023-07-28T09:14:17;23.30;99.90
34646;DHT22;20857;47.808;12.482;2023-07-28T09:16:44;23.40;99.90
34646;DHT22;20857;47.808;12.482;2023-07-28T09:19:11;23.50;99.90
34646;DHT22;20857;47.808;12.482;2023-07-28T09:21:38;23.50;99.90
34646;DHT22;20857;47.808;12.482;2023-07-28T09:24:05;23.60;99.90
34646;DHT22;20857;47.808;12.482;2023-07-28T09:26:42;24.00;99.90
34646;DHT22;20857;47.808;12.482;2023-07-28T09:29:15;24.40;99.90
34646;DHT22;20857;47.808;12.482;2023-07-28T09:31:42;24.80;99.90
34646;DHT22;20857;47.808;12.482;2023-07-28T09:34:10;25.20;99.90
34646;DHT22;20857;47.808;12.482;2023-07-28T09:36:39;25.60;99.90
34646;DHT22;20857;47.808;12.482;2023-07-28T09:39:08;25.70;99.90
34646;DHT22;20857;47.808;12.482;2023-07-28T09:41:38;25.70;99.90
34646;DHT22;20857;47.808;12.482;2023-07-28T09:44:07;25.60;99.90
34646;DHT22;20857;47.808;12.482;2023-07-28T09:46:34;25.70;99.90
34646;DHT22;20857;47.808;12.482;2023-07-28T09:49:05;25.80;99.90
34646;DHT22;20857;47.808;12.482;2023-07-28T09:51:36;25.70;99.90
34646;DHT22;20857;47.808;12.482;2023-07-28T09:54:17;25.50;99.90
34646;DHT22;20857;47.808;12.482;2023-07-28T09:56:50;25.60;99.90
34646;DHT22;20857;47.808;12.482;2023-07-28T09:59:18;25.60;99.90
34646;DHT22;20857;47.808;12.482;2023-07-28T10:01:45;25.40;99.90
34646;DHT22;20857;47.808;12.482;2023-07-28T10:04:11;25.10;99.50
34646;DHT22;20857;47.808;12.482;2023-07-28T10:06:37;25.30;99.90
34646;DHT22;20857;47.808;12.482;2023-07-28T10:09:04;25.50;99.90
34646;DHT22;20857;47.808;12.482;2023-07-28T10:11:31;25.00;99.90
34646;DHT22;20857;47.808;12.482;2023-07-28T10:13:57;24.80;99.90
34646;DHT22;20857;47.808;12.482;2023-07-28T10:16:38;25.00;99.90
34646;DHT22;20857;47.808;12.482;2023-07-28T10:19:04;24.90;99.90
34646;DHT22;20857;47.808;12.482;2023-07-28T10:21:30;25.30;99.90
34646;DHT22;20857;47.808;12.482;2023-07-28T10:23:58;25.50;99.90
34646;DHT22;20857;47.808;12.482;2023-07-28T10:26:38;25.60;99.50
34646;DHT22;20857;47.808;12.482;2023-07-28T10:29:16;25.20;99.80
34646;DHT22;20857;47.808;12.482;2023-07-28T10:31:51;25.00;99.20
34646;DHT22;20857;47.808;12.482;2023-07-28T10:34:18;24.80;99.90
34646;DHT22;20857;47.808;12.482;2023-07-28T10:36:44;24.60;99.90
34646;DHT22;20857;47.808;12.482;2023-07-28T10:39:14;24.80;99.90
34646;DHT22;20857;47.808;12.482;2023-07-28T10:42:14;25.10;99.90
34646;DHT22;20857;47.808;12.482;2023-07-28T10:44:40;25.20;99.90
34646;DHT22;20857;47.808;12.482;2023-07-28T10:47:10;25.40;99.90
34646;DHT22;20857;47.808;12.482;2023-07-28T10:49:36;25.40;99.90
34646;DHT22;20857;47.808;12.482;2023-07-28T10:52:02;25.10;99.90
34646;DHT22;20857;47.808;12.482;2023-07-28T10:54:28;25.00;99.90
34646;DHT22;20857;47.808;12.482;2023-07-28T10:56:56;25.00;99.90
34646;DHT22;20857;47.808;12.482;2023-07-28T10:59:21;25.00;99.90
34646;DHT22;20857;47.808;12.482;2023-07-28T11:01:47;24.90;99.90
34646;DHT22;20857;47.808;12.482;2023-07-28T11:04:20;24.90;99.90
34646;DHT22;20857;47.808;12.482;2023-07-28T11:06:48;24.90;99.90
34646;DHT22;20857;47.808;12.482;2023-07-28T11:09:16;24.80;99.90
34646;DHT22;20857;47.808;12.482;2023-07-28T11:11:42;24.70;99.90
34646;DHT22;20857;47.808;12.482;2023-07-28T11:14:08;24.50;99.90
34646;DHT22;20857;47.808;12.482;2023-07-28T11:16:40;24.30;99.90
34646;DHT22;20857;47.808;12.482;2023-07-28T11:19:12;24.20;99.90
34646;DHT22;20857;47.808;12.482;2023-07-28T11:21:40;24.20;99.90
34646;DHT22;20857;47.808;12.482;2023-07-28T11:24:10;24.10;99.90
34646;DHT22;20857;47.808;12.482;2023-07-28T11:26:36;24.00;99.90
34646;DHT22;20857;47.808;12.482;2023-07-28T11:29:03;23.90;99.90
34646;DHT22;20857;47.808;12.482;2023-07-28T11:31:29;23.70;99.90
34646;DHT22;20857;47.808;12.482;2023-07-28T11:33:55;23.50;99.90
34646;DHT22;20857;47.808;12.482;2023-07-28T11:36:27;23.40;99.90
34646;DHT22;20857;47.808;12.482;2023-07-28T11:38:54;23.30;99.90
34646;DHT22;20857;47.808;12.482;2023-07-28T11:41:21;23.20;99.90
34646;DHT22;20857;47.808;12.482;2023-07-28T11:43:51;23.30;99.90
34646;DHT22;20857;47.808;12.482;2023-07-28T11:46:35;23.30;99.90
34646;DHT22;20857;47.808;12.482;2023-07-28T11:49:19;23.50;99.90
34646;DHT22;20857;47.808;12.482;2023-07-28T11:51:49;23.60;99.90
34646;DHT22;20857;47.808;12.482;2023-07-28T11:54:20;23.60;99.90
34646;DHT22;20857;47.808;12.482;2023-07-28T11:56:49;23.70;99.90
34646;DHT22;20857;47.808;12.482;2023-07-28T11:59:16;23.90;99.90
34646;DHT22;20857;47.808;12.482;2023-07-28T12:02:04;23.80;99.90
34646;DHT22;20857;47.808;12.482;2023-07-28T12:04:36;23.80;99.90
34646;DHT22;20857;47.808;12.482;2023-07-28T12:07:16;23.70;99.90
34646;DHT22;20857;47.808;12.482;2023-07-28T12:12:15;23.60;99.90
34646;DHT22;20857;47.808;12.482;2023-07-28T12:14:41;23.50;99.90
34646;DHT22;20857;47.808;12.482;2023-07-28T12:17:21;23.50;99.90
34646;DHT22;20857;47.808;12.482;2023-07-28T12:20:01;23.50;99.90
34646;DHT22;20857;47.808;12.482;2023-07-28T12:22:37;23.70;99.90
34646;DHT22;20857;47.808;12.482;2023-07-28T12:25:03;23.90;99.90
34646;DHT22;20857;47.808;12.482;2023-07-28T12:27:30;24.00;99.90
34646;DHT22;20857;47.808;12.482;2023-07-28T12:29:56;24.10;99.90
34646;DHT22;20857;47.808;12.482;2023-07-28T12:32:21;24.40;99.90
34646;DHT22;20857;47.808;12.482;2023-07-28T12:34:48;24.70;99.90
34646;DHT22;20857;47.808;12.482;2023-07-28T12:37:14;25.00;99.90
34646;DHT22;20857;47.808;12.482;2023-07-28T12:39:40;25.40;99.90
34646;DHT22;20857;47.808;12.482;2023-07-28T12:42:06;25.30;99.90
34646;DHT22;20857;47.808;12.482;2023-07-28T12:44:33;25.10;99.90
34646;DHT22;20857;47.808;12.482;2023-07-28T12:46:58;24.60;99.90
34646;DHT22;20857;47.808;12.482;2023-07-28T12:49:24;24.60;99.90
34646;DHT22;20857;47.808;12.482;2023-07-28T12:51:49;24.40;99.90
34646;DHT22;20857;47.808;12.482;2023-07-28T12:54:15;24.50;99.90
34646;DHT22;20857;47.808;12.482;2023-07-28T12:56:41;24.80;99.90
34646;DHT22;20857;47.808;12.482;2023-07-28T12:59:07;24.80;99.90
34646;DHT22;20857;47.808;12.482;2023-07-28T13:01:33;24.90;99.90
34646;DHT22;20857;47.808;12.482;2023-07-28T13:03:59;24.70;99.90
34646;DHT22;20857;47.808;12.482;2023-07-28T13:06:25;24.80;99.90
34646;DHT22;20857;47.808;12.482;2023-07-28T13:08:50;25.00;99.90
34646;DHT22;20857;47.808;12.482;2023-07-28T13:11:16;25.40;99.90
34646;DHT22;20857;47.808;12.482;2023-07-28T13:13:41;25.60;99.90
34646;DHT22;20857;47.808;12.482;2023-07-28T13:16:07;26.00;99.60
34646;DHT22;20857;47.808;12.482;2023-07-28T13:18:32;26.10;99.90
34646;DHT22;20857;47.808;12.482;2023-07-28T13:20:58;25.80;99.90
34646;DHT22;20857;47.808;12.482;2023-07-28T13:23:24;25.50;99.90
34646;DHT22;20857;47.808;12.482;2023-07-28T13:25:50;25.20;99.90
34646;DHT22;20857;47.808;12.482;2023-07-28T13:28:17;24.80;99.90
34646;DHT22;20857;47.808;12.482;2023-07-28T13:30:42;24.30;99.90
34646;DHT22;20857;47.808;12.482;2023-07-28T13:33:08;24.30;99.90
34646;DHT22;20857;47.808;12.482;2023-07-28T13:35:34;24.50;99.90
34646;DHT22;20857;47.808;12.482;2023-07-28T13:37:59;25.60;99.90
34646;DHT22;20857;47.808;12.482;2023-07-28T13:40:25;27.60;99.80
34646;DHT22;20857;47.808;12.482;2023-07-28T13:42:50;29.90;97.30
34646;DHT22;20857;47.808;12.482;2023-07-28T13:45:16;30.30;96.10
34646;DHT22;20857;47.808;12.482;2023-07-28T13:47:41;30.50;95.60
34646;DHT22;20857;47.808;12.482;2023-07-28T13:50:07;30.20;95.70
34646;DHT22;20857;47.808;12.482;2023-07-28T13:52:33;29.30;95.80
34646;DHT22;20857;47.808;12.482;2023-07-28T13:54:58;27.60;96.70
34646;DHT22;20857;47.808;12.482;2023-07-28T13:57:24;26.90;97.80
34646;DHT22;20857;47.808;12.482;2023-07-28T13:59:50;27.10;98.30
34646;DHT22;20857;47.808;12.482;2023-07-28T14:02:18;27.80;97.90
34646;DHT22;20857;47.808;12.482;2023-07-28T14:04:44;28.80;97.60
34646;DHT22;20857;47.808;12.482;2023-07-28T14:07:10;28.90;96.80
34646;DHT22;20857;47.808;12.482;2023-07-28T14:09:36;29.00;95.90
34646;DHT22;20857;47.808;12.482;2023-07-28T14:12:03;28.80;97.00
34646;DHT22;20857;47.808;12.482;2023-07-28T14:14:29;28.20;96.60
34646;DHT22;20857;47.808;12.482;2023-07-28T14:16:54;28.30;97.20
34646;DHT22;20857;47.808;12.482;2023-07-28T14:19:20;28.20;98.10
34646;DHT22;20857;47.808;12.482;2023-07-28T14:21:46;27.60;96.50
34646;DHT22;20857;47.808;12.482;2023-07-28T14:24:12;27.30;97.40
34646;DHT22;20857;47.808;12.482;2023-07-28T14:26:38;27.00;98.20
34646;DHT22;20857;47.808;12.482;2023-07-28T14:29:04;26.30;98.70
34646;DHT22;20857;47.808;12.482;2023-07-28T14:31:29;26.00;98.10
34646;DHT22;20857;47.808;12.482;2023-07-28T14:33:55;25.80;98.80
34646;DHT22;20857;47.808;12.482;2023-07-28T14:36:21;25.50;98.90
34646;DHT22;20857;47.808;12.482;2023-07-28T14:38:46;25.30;98.60
34646;DHT22;20857;47.808;12.482;2023-07-28T14:41:12;25.20;98.60
34646;DHT22;20857;47.808;12.482;2023-07-28T14:43:37;24.90;99.30
34646;DHT22;20857;47.808;12.482;2023-07-28T14:46:03;24.70;99.50
34646;DHT22;20857;47.808;12.482;2023-07-28T14:48:29;24.50;98.40
34646;DHT22;20857;47.808;12.482;2023-07-28T14:50:54;24.40;99.70
34646;DHT22;20857;47.808;12.482;2023-07-28T14:53:36;24.40;99.30
34646;DHT22;20857;47.808;12.482;2023-07-28T14:56:04;24.30;99.60
34646;DHT22;20857;47.808;12.482;2023-07-28T14:58:30;24.40;99.80
34646;DHT22;20857;47.808;12.482;2023-07-28T15:00:56;24.50;99.10
34646;DHT22;20857;47.808;12.482;2023-07-28T15:03:25;24.50;99.30
34646;DHT22;20857;47.808;12.482;2023-07-28T15:05:51;24.60;99.50
34646;DHT22;20857;47.808;12.482;2023-07-28T15:08:16;25.00;99.90
34646;DHT22;20857;47.808;12.482;2023-07-28T15:10:42;25.50;97.80
34646;DHT22;20857;47.808;12.482;2023-07-28T15:13:08;25.80;97.70
34646;DHT22;20857;47.808;12.482;2023-07-28T15:15:33;26.00;97.70
34646;DHT22;20857;47.808;12.482;2023-07-28T15:17:59;25.80;98.40
34646;DHT22;20857;47.808;12.482;2023-07-28T15:20:25;25.20;97.40
34646;DHT22;20857;47.808;12.482;2023-07-28T15:22:51;24.80;99.00